createdAt,value
2018-11-06T00:00:12.170Z,16.1
2018-11-06T00:01:02.763Z,16.1
2018-11-06T00:01:54.101Z,16.1
2018-11-06T00:02:42.666Z,16.1
2018-11-06T00:03:33.898Z,16.1
2018-11-06T00:04:23.202Z,16.1
2018-11-06T00:05:13.936Z,16.1
2018-11-06T00:06:01.777Z,16.1
2018-11-06T00:06:52.368Z,16.1
2018-11-06T00:25:10.012Z,16.1
2018-11-06T00:26:00.590Z,16.1
2018-11-06T00:26:50.192Z,16.1
2018-11-06T00:27:40.130Z,16.1
2018-11-06T00:28:30.535Z,16.1
2018-11-06T00:29:19.592Z,16.1
2018-11-06T00:30:10.067Z,16.1
2018-11-06T00:31:00.409Z,16.1
2018-11-06T00:31:50.004Z,16.1
2018-11-06T00:32:41.141Z,16.1
2018-11-06T00:33:29.308Z,16.1
2018-11-06T00:34:22.503Z,16.1
2018-11-06T00:35:10.775Z,16
2018-11-06T00:36:00.868Z,16
2018-11-06T00:36:51.077Z,16
2018-11-06T00:37:40.209Z,16
2018-11-06T00:38:28.770Z,16.1
2018-11-06T00:39:20.546Z,16
2018-11-06T00:40:10.406Z,16.1
2018-11-06T00:41:00.696Z,16
2018-11-06T00:41:51.305Z,16
2018-11-06T00:42:40.368Z,16
2018-11-06T00:43:30.284Z,16
2018-11-06T00:44:21.471Z,16
2018-11-06T00:45:10.390Z,16
2018-11-06T00:46:01.583Z,16
2018-11-06T00:46:49.765Z,16
2018-11-06T00:47:40.941Z,16
2018-11-06T00:48:31.322Z,16
2018-11-06T00:49:21.200Z,16
2018-11-06T00:50:11.055Z,16
2018-11-06T00:51:01.911Z,16
2018-11-06T00:51:52.481Z,16
2018-11-06T00:52:40.810Z,16
2018-11-06T00:53:30.630Z,16
2018-11-06T00:54:20.526Z,16
2018-11-06T00:55:12.249Z,16
2018-11-06T00:56:02.570Z,16
2018-11-06T00:56:52.050Z,15.9
2018-11-06T00:57:42.837Z,15.9
2018-11-06T00:58:32.086Z,16
2018-11-06T00:59:21.707Z,16
2018-11-06T01:00:12.010Z,16
2018-11-06T01:01:02.210Z,16
2018-11-06T01:01:53.138Z,16
2018-11-06T01:02:41.931Z,16
2018-11-06T01:03:32.833Z,16
2018-11-06T01:04:22.840Z,15.9
2018-11-06T01:05:12.317Z,15.9
2018-11-06T01:06:02.522Z,15.9
2018-11-06T01:06:52.917Z,15.9
2018-11-06T01:07:43.289Z,15.9
2018-11-06T01:08:33.525Z,15.9
2018-11-06T01:09:22.711Z,15.9
2018-11-06T01:10:12.799Z,15.9
2018-11-06T01:11:03.117Z,15.9
2018-11-06T01:11:53.017Z,15.9
2018-11-06T01:12:44.100Z,15.9
2018-11-06T01:13:33.489Z,15.9
2018-11-06T01:14:23.708Z,15.9
2018-11-06T01:15:14.246Z,15.9
2018-11-06T01:16:03.418Z,15.9
2018-11-06T01:16:53.751Z,15.9
2018-11-06T01:17:43.577Z,15.9
2018-11-06T01:18:33.486Z,15.9
2018-11-06T01:19:23.571Z,15.9
2018-11-06T01:20:14.311Z,15.9
2018-11-06T01:21:03.195Z,15.9
2018-11-06T01:21:54.019Z,15.9
2018-11-06T01:22:44.058Z,15.9
2018-11-06T01:23:34.241Z,15.9
2018-11-06T01:24:23.811Z,15.9
2018-11-06T01:25:13.156Z,15.9
2018-11-06T01:26:04.821Z,15.9
2018-11-06T01:26:54.226Z,15.9
2018-11-06T01:27:44.080Z,15.9
2018-11-06T01:28:35.196Z,15.9
2018-11-06T01:29:23.268Z,15.9
2018-11-06T01:30:13.895Z,15.9
2018-11-06T01:31:03.601Z,15.9
2018-11-06T01:31:53.496Z,15.9
2018-11-06T01:32:45.471Z,15.9
2018-11-06T01:33:35.173Z,15.9
2018-11-06T01:34:25.313Z,15.9
2018-11-06T01:35:15.180Z,15.9
2018-11-06T01:36:04.698Z,15.9
2018-11-06T01:36:54.728Z,15.9
2018-11-06T01:37:45.527Z,15.9
2018-11-06T01:38:35.283Z,15.9
2018-11-06T01:39:25.237Z,15.9
2018-11-06T01:40:16.313Z,15.9
2018-11-06T01:41:04.491Z,15.9
2018-11-06T01:41:55.845Z,15.9
2018-11-06T01:42:46.308Z,15.9
2018-11-06T01:43:36.380Z,15.9
2018-11-06T01:44:25.020Z,15.9
2018-11-06T01:45:15.765Z,15.9
2018-11-06T01:46:05.942Z,15.9
2018-11-06T01:46:55.090Z,15.9
2018-11-06T01:47:46.317Z,15.9
2018-11-06T01:48:35.577Z,15.9
2018-11-06T01:49:25.657Z,15.9
2018-11-06T01:50:15.550Z,15.9
2018-11-06T01:51:05.592Z,15.9
2018-11-06T01:51:55.697Z,15.9
2018-11-06T01:52:46.083Z,15.9
2018-11-06T01:53:36.466Z,15.8
2018-11-06T01:54:26.742Z,15.9
2018-11-06T01:55:15.956Z,15.9
2018-11-06T01:56:07.444Z,15.8
2018-11-06T01:56:55.609Z,15.9
2018-11-06T01:57:46.062Z,15.8
2018-11-06T01:58:35.617Z,15.8
2018-11-06T01:59:26.179Z,15.9
2018-11-06T02:00:17.787Z,15.8
2018-11-06T02:01:07.219Z,15.9
2018-11-06T02:01:57.224Z,15.9
2018-11-06T02:02:46.592Z,15.8
2018-11-06T02:03:36.497Z,15.8
2018-11-06T02:04:27.047Z,15.9
2018-11-06T02:05:16.809Z,15.8
2018-11-06T02:06:07.876Z,15.8
2018-11-06T02:06:57.693Z,15.8
2018-11-06T02:07:46.699Z,15.8
2018-11-06T02:08:37.576Z,15.8
2018-11-06T02:09:27.451Z,15.8
2018-11-06T02:10:16.980Z,15.8
2018-11-06T02:11:07.243Z,15.8
2018-11-06T02:11:56.496Z,15.8
2018-11-06T02:12:46.758Z,15.8
2018-11-06T02:13:37.363Z,15.8
2018-11-06T02:14:27.221Z,15.8
2018-11-06T02:15:17.033Z,15.8
2018-11-06T02:16:06.755Z,15.8
2018-11-06T02:16:56.622Z,15.8
2018-11-06T02:17:47.390Z,15.8
2018-11-06T02:18:38.233Z,15.8
2018-11-06T02:19:28.978Z,15.8
2018-11-06T02:20:18.468Z,15.8
2018-11-06T02:21:07.728Z,15.8
2018-11-06T02:21:58.898Z,15.8
2018-11-06T02:22:49.265Z,15.8
2018-11-06T02:23:36.963Z,15.8
2018-11-06T02:24:28.468Z,15.8
2018-11-06T02:25:19.085Z,15.8
2018-11-06T02:26:08.193Z,15.8
2018-11-06T02:26:58.335Z,15.8
2018-11-06T02:27:48.990Z,15.8
2018-11-06T02:28:38.812Z,15.8
2018-11-06T02:29:28.875Z,15.8
2018-11-06T02:30:19.172Z,15.8
2018-11-06T02:31:07.968Z,15.8
2018-11-06T02:32:00.632Z,15.8
2018-11-06T02:32:49.712Z,15.8
2018-11-06T02:33:38.643Z,15.8
2018-11-06T02:34:28.578Z,15.8
2018-11-06T02:35:20.108Z,15.8
2018-11-06T02:36:09.017Z,15.8
2018-11-06T02:36:59.102Z,15.8
2018-11-06T02:37:48.590Z,15.8
2018-11-06T02:38:39.175Z,15.8
2018-11-06T02:39:30.305Z,15.8
2018-11-06T02:40:19.603Z,15.8
2018-11-06T02:41:10.088Z,15.8
2018-11-06T02:41:59.435Z,15.8
2018-11-06T02:42:49.724Z,15.8
2018-11-06T02:43:39.817Z,15.8
2018-11-06T02:44:30.162Z,15.8
2018-11-06T02:45:19.422Z,15.8
2018-11-06T02:46:09.328Z,15.8
2018-11-06T02:47:00.059Z,15.8
2018-11-06T02:47:50.193Z,15.8
2018-11-06T02:48:39.919Z,15.8
2018-11-06T02:49:30.016Z,15.7
2018-11-06T02:50:20.146Z,15.7
2018-11-06T02:51:10.397Z,15.7
2018-11-06T02:52:01.287Z,15.8
2018-11-06T02:52:50.909Z,15.8
2018-11-06T02:53:40.854Z,15.7
2018-11-06T02:54:30.438Z,15.7
2018-11-06T02:55:21.008Z,15.7
2018-11-06T02:56:11.126Z,15.7
2018-11-06T02:57:01.394Z,15.7
2018-11-06T02:57:50.418Z,15.7
2018-11-06T02:58:41.496Z,15.7
2018-11-06T02:59:29.971Z,15.7
2018-11-06T03:00:21.883Z,15.7
2018-11-06T03:01:10.116Z,15.7
2018-11-06T03:02:00.758Z,15.7
2018-11-06T03:02:50.203Z,15.7
2018-11-06T03:03:40.586Z,15.7
2018-11-06T03:04:30.608Z,15.7
2018-11-06T03:05:21.909Z,15.7
2018-11-06T03:06:11.994Z,15.7
2018-11-06T03:07:01.578Z,15.7
2018-11-06T03:07:52.320Z,15.7
2018-11-06T03:08:41.368Z,15.7
2018-11-06T03:09:32.562Z,15.7
2018-11-06T03:10:23.838Z,15.7
2018-11-06T03:11:11.407Z,15.7
2018-11-06T03:12:02.487Z,15.7
2018-11-06T03:12:52.128Z,15.7
2018-11-06T03:13:41.635Z,15.7
2018-11-06T03:14:32.293Z,15.7
2018-11-06T03:15:21.621Z,15.7
2018-11-06T03:16:11.732Z,15.7
2018-11-06T03:17:02.169Z,15.7
2018-11-06T03:17:51.730Z,15.6
2018-11-06T03:18:42.247Z,15.6
2018-11-06T03:19:32.472Z,15.7
2018-11-06T03:20:22.542Z,15.6
2018-11-06T03:21:12.704Z,15.6
2018-11-06T03:22:02.062Z,15.7
2018-11-06T03:22:53.527Z,15.6
2018-11-06T03:23:43.824Z,15.6
2018-11-06T03:24:32.855Z,15.6
2018-11-06T03:25:23.157Z,15.6
2018-11-06T03:26:12.656Z,15.6
2018-11-06T03:27:04.440Z,15.6
2018-11-06T03:27:52.199Z,15.6
2018-11-06T03:28:42.999Z,15.6
2018-11-06T03:29:32.554Z,15.6
2018-11-06T03:30:22.184Z,15.6
2018-11-06T03:31:12.185Z,15.6
2018-11-06T03:32:03.669Z,15.6
2018-11-06T03:32:53.528Z,15.6
2018-11-06T03:33:43.101Z,15.6
2018-11-06T03:34:31.761Z,15.6
2018-11-06T03:35:23.189Z,15.6
2018-11-06T03:36:12.616Z,15.6
2018-11-06T03:37:03.899Z,15.6
2018-11-06T03:37:52.973Z,15.6
2018-11-06T03:38:43.638Z,15.6
2018-11-06T03:39:33.582Z,15.6
2018-11-06T03:40:22.920Z,15.6
2018-11-06T03:41:13.653Z,15.6
2018-11-06T03:42:03.263Z,15.6
2018-11-06T03:42:53.528Z,15.6
2018-11-06T03:43:43.466Z,15.6
2018-11-06T03:44:32.655Z,15.6
2018-11-06T03:45:24.648Z,15.6
2018-11-06T03:46:15.239Z,15.6
2018-11-06T03:47:04.499Z,15.6
2018-11-06T03:47:54.466Z,15.6
2018-11-06T03:48:45.340Z,15.6
2018-11-06T03:49:34.667Z,15.6
2018-11-06T03:50:24.174Z,15.6
2018-11-06T03:51:14.190Z,15.6
2018-11-06T03:52:04.574Z,15.6
2018-11-06T03:52:55.097Z,15.6
2018-11-06T03:53:43.771Z,15.6
2018-11-06T03:54:35.263Z,15.6
2018-11-06T03:55:24.385Z,15.6
2018-11-06T03:56:14.532Z,15.6
2018-11-06T03:57:04.589Z,15.6
2018-11-06T03:57:55.476Z,15.6
2018-11-06T03:58:44.562Z,15.6
2018-11-06T03:59:34.944Z,15.6
2018-11-06T04:00:24.414Z,15.6
2018-11-06T04:01:15.257Z,15.6
2018-11-06T04:02:04.734Z,15.6
2018-11-06T04:02:54.609Z,15.6
2018-11-06T04:03:45.097Z,15.6
2018-11-06T04:04:34.657Z,15.6
2018-11-06T04:05:26.017Z,15.6
2018-11-06T04:06:15.274Z,15.6
2018-11-06T04:07:05.991Z,15.5
2018-11-06T04:07:55.392Z,15.6
2018-11-06T04:08:45.700Z,15.5
2018-11-06T04:09:35.427Z,15.6
2018-11-06T04:10:26.512Z,15.6
2018-11-06T04:11:16.057Z,15.6
2018-11-06T04:12:05.921Z,15.5
2018-11-06T04:12:55.566Z,15.6
2018-11-06T04:13:46.313Z,15.6
2018-11-06T04:14:35.696Z,15.5
2018-11-06T04:15:26.116Z,15.5
2018-11-06T04:16:16.832Z,15.5
2018-11-06T04:17:06.879Z,15.5
2018-11-06T04:17:57.246Z,15.5
2018-11-06T04:18:46.154Z,15.5
2018-11-06T04:19:36.190Z,15.5
2018-11-06T04:20:26.544Z,15.5
2018-11-06T04:21:16.648Z,15.5
2018-11-06T04:22:06.861Z,15.5
2018-11-06T04:22:57.276Z,15.5
2018-11-06T04:23:47.731Z,15.5
2018-11-06T04:24:37.953Z,15.5
2018-11-06T04:25:28.183Z,15.5
2018-11-06T04:26:17.095Z,15.5
2018-11-06T04:27:06.386Z,15.5
2018-11-06T04:27:56.328Z,15.5
2018-11-06T04:28:47.193Z,15.5
2018-11-06T04:29:37.830Z,15.5
2018-11-06T04:30:28.121Z,15.5
2018-11-06T04:31:17.337Z,15.5
2018-11-06T04:32:07.074Z,15.5
2018-11-06T04:32:58.640Z,15.5
2018-11-06T04:33:47.593Z,15.4
2018-11-06T04:34:37.848Z,15.4
2018-11-06T04:35:28.261Z,15.4
2018-11-06T04:36:18.031Z,15.4
2018-11-06T04:54:18.152Z,15.4
2018-11-06T04:55:09.903Z,15.4
2018-11-06T04:55:58.240Z,15.4
2018-11-06T04:56:49.684Z,15.4
2018-11-06T04:57:39.680Z,15.4
2018-11-06T04:58:29.684Z,15.4
2018-11-06T04:59:20.423Z,15.4
2018-11-06T05:00:09.427Z,15.4
2018-11-06T05:01:00.001Z,15.4
2018-11-06T05:01:49.205Z,15.4
2018-11-06T05:02:38.711Z,15.4
2018-11-06T05:03:29.744Z,15.4
2018-11-06T05:04:19.068Z,15.4
2018-11-06T05:05:09.934Z,15.4
2018-11-06T05:06:00.471Z,15.4
2018-11-06T05:06:51.160Z,15.4
2018-11-06T05:07:41.329Z,15.4
2018-11-06T05:08:30.808Z,15.4
2018-11-06T05:09:20.537Z,15.4
2018-11-06T05:10:11.108Z,15.4
2018-11-06T05:11:02.094Z,15.4
2018-11-06T05:11:50.766Z,15.4
2018-11-06T05:12:40.866Z,15.4
2018-11-06T05:13:45.941Z,15.4
2018-11-06T05:14:22.952Z,15.4
2018-11-06T05:15:26.099Z,15.4
2018-11-06T05:16:00.219Z,15.4
2018-11-06T05:16:51.668Z,15.4
2018-11-06T05:17:40.811Z,15.4
2018-11-06T05:18:31.741Z,15.4
2018-11-06T05:19:21.903Z,15.3
2018-11-06T05:20:11.558Z,15.4
2018-11-06T05:21:02.474Z,15.4
2018-11-06T05:22:05.801Z,15.3
2018-11-06T05:22:41.563Z,15.3
2018-11-06T05:23:31.703Z,15.3
2018-11-06T05:24:21.627Z,15.3
2018-11-06T05:25:13.230Z,15.3
2018-11-06T05:26:16.147Z,15.3
2018-11-06T05:26:52.123Z,15.3
2018-11-06T05:27:43.465Z,15.3
2018-11-06T05:28:32.320Z,15.3
2018-11-06T05:30:12.172Z,15.3
2018-11-06T05:31:03.033Z,15.3
2018-11-06T05:31:52.732Z,15.3
2018-11-06T05:32:42.193Z,15.3
2018-11-06T09:08:49.252Z,15.3
2018-11-06T09:09:38.374Z,15.3
2018-11-06T09:10:29.820Z,15.3
2018-11-06T09:11:18.313Z,15.3
2018-11-06T09:12:09.622Z,15.3
2018-11-06T09:12:59.522Z,15.3
2018-11-06T09:13:49.677Z,15.3
2018-11-06T09:14:39.452Z,15.3
2018-11-06T09:15:28.586Z,15.3
2018-11-06T09:16:19.591Z,15.3
2018-11-06T09:17:11.308Z,15.3
2018-11-06T09:17:59.702Z,15.3
2018-11-06T09:18:49.998Z,15.3
2018-11-06T09:19:39.379Z,15.3
2018-11-06T09:20:29.213Z,15.3
2018-11-06T09:21:19.845Z,15.3
2018-11-06T09:22:09.567Z,15.3
2018-11-06T09:22:59.476Z,15.3
2018-11-06T09:23:49.992Z,15.3
2018-11-06T09:24:39.918Z,15.3
2018-11-06T09:25:29.368Z,15.3
2018-11-06T09:26:19.077Z,15.3
2018-11-06T09:27:09.243Z,15.3
2018-11-06T09:27:59.711Z,15.3
2018-11-06T09:28:50.696Z,15.3
2018-11-06T09:29:55.153Z,15.3
2018-11-06T09:30:30.138Z,15.3
2018-11-06T09:31:20.631Z,15.3
2018-11-06T09:32:09.443Z,15.3
2018-11-06T09:33:01.145Z,15.3
2018-11-06T09:33:50.488Z,15.3
2018-11-06T09:34:40.763Z,15.3
2018-11-06T09:35:30.490Z,15.3
2018-11-06T09:36:20.326Z,15.3
2018-11-06T09:37:10.870Z,15.3
2018-11-06T09:38:00.603Z,15.3
2018-11-06T09:38:49.945Z,15.3
2018-11-06T09:39:41.233Z,15.3
2018-11-06T09:41:21.738Z,15.3
2018-11-06T09:42:11.138Z,15.3
2018-11-06T09:43:01.648Z,15.3
2018-11-06T09:43:50.709Z,15.3
2018-11-06T09:44:40.920Z,15.3
2018-11-06T09:45:32.518Z,15.3
2018-11-06T09:46:20.467Z,15.3
2018-11-06T09:47:11.007Z,15.3
2018-11-06T09:48:01.538Z,15.3
2018-11-06T09:48:52.037Z,15.3
2018-11-06T09:49:40.727Z,15.3
2018-11-06T09:50:31.409Z,15.3
2018-11-06T09:51:20.894Z,15.3
2018-11-06T09:52:14.012Z,15.3
2018-11-06T09:53:02.099Z,15.3
2018-11-06T09:53:52.547Z,15.3
2018-11-06T09:54:42.217Z,15.3
2018-11-06T09:55:31.627Z,15.3
2018-11-06T09:56:21.504Z,15.3
2018-11-06T09:57:11.577Z,15.3
2018-11-06T09:58:01.903Z,15.3
2018-11-06T09:58:51.069Z,15.3
2018-11-06T09:59:43.092Z,15.3
2018-11-06T10:00:31.917Z,15.3
2018-11-06T10:01:22.623Z,15.3
2018-11-06T10:02:12.550Z,15.3
2018-11-06T10:03:02.941Z,15.3
2018-11-06T10:03:52.791Z,15.3
2018-11-06T10:04:42.346Z,15.3
2018-11-06T10:05:32.596Z,15.3
2018-11-06T10:06:25.684Z,15.3
2018-11-06T10:07:19.009Z,15.3
2018-11-06T10:08:03.531Z,15.3
2018-11-06T10:08:52.906Z,15.3
2018-11-06T10:09:42.894Z,15.3
2018-11-06T10:10:32.946Z,15.3
2018-11-06T10:11:23.920Z,15.3
2018-11-06T10:12:13.572Z,15.3
2018-11-06T10:13:04.028Z,15.3
2018-11-06T10:13:54.306Z,15.3
2018-11-06T10:14:42.858Z,15.3
2018-11-06T10:15:34.581Z,15.3
2018-11-06T10:16:23.483Z,15.4
2018-11-06T10:17:12.338Z,15.3
2018-11-06T10:18:04.535Z,15.4
2018-11-06T10:18:52.447Z,15.4
2018-11-06T10:19:44.070Z,15.4
2018-11-06T10:20:33.603Z,15.4
2018-11-06T10:21:25.269Z,15.4
2018-11-06T10:22:13.790Z,15.4
2018-11-06T10:23:03.548Z,15.4
2018-11-06T10:23:53.997Z,15.4
2018-11-06T10:24:44.177Z,15.4
2018-11-06T10:25:35.015Z,15.4
2018-11-06T10:26:24.812Z,15.4
2018-11-06T10:27:14.462Z,15.4
2018-11-06T10:28:04.332Z,15.4
2018-11-06T10:28:54.869Z,15.4
2018-11-06T10:29:44.752Z,15.4
2018-11-06T10:30:34.734Z,15.4
2018-11-06T10:31:23.702Z,15.4
2018-11-06T10:32:14.972Z,15.4
2018-11-06T10:33:04.802Z,15.4
2018-11-06T10:33:55.502Z,15.4
2018-11-06T10:34:44.846Z,15.4
2018-11-06T10:35:34.731Z,15.4
2018-11-06T10:36:25.896Z,15.4
2018-11-06T10:37:14.231Z,15.4
2018-11-06T10:38:04.648Z,15.4
2018-11-06T10:38:54.336Z,15.4
2018-11-06T10:39:45.409Z,15.4
2018-11-06T10:40:35.735Z,15.4
2018-11-06T10:41:24.499Z,15.4
2018-11-06T10:42:14.984Z,15.4
2018-11-06T10:43:05.276Z,15.4
2018-11-06T10:43:56.053Z,15.4
2018-11-06T10:44:45.762Z,15.4
2018-11-06T10:45:35.382Z,15.4
2018-11-06T10:46:25.318Z,15.4
2018-11-06T10:47:16.058Z,15.4
2018-11-06T10:48:04.698Z,15.4
2018-11-06T10:48:55.630Z,15.4
2018-11-06T10:49:46.335Z,15.4
2018-11-06T10:50:35.818Z,15.4
2018-11-06T10:51:27.031Z,15.4
2018-11-06T10:52:15.628Z,15.4
2018-11-06T10:53:05.023Z,15.4
2018-11-06T10:53:54.800Z,15.4
2018-11-06T10:54:46.976Z,15.4
2018-11-06T10:55:35.753Z,15.4
2018-11-06T10:56:26.736Z,15.4
2018-11-06T10:57:16.335Z,15.4
2018-11-06T10:58:06.924Z,15.4
2018-11-06T10:58:56.533Z,15.4
2018-11-06T10:59:46.560Z,15.4
2018-11-06T11:00:36.740Z,15.4
2018-11-06T11:01:27.523Z,15.4
2018-11-06T11:02:16.953Z,15.4
2018-11-06T11:03:07.190Z,15.4
2018-11-06T11:03:57.964Z,15.4
2018-11-06T11:04:47.241Z,15.4
2018-11-06T11:05:36.712Z,15.4
2018-11-06T11:06:26.960Z,15.4
2018-11-06T11:07:16.941Z,15.4
2018-11-06T11:08:07.387Z,15.4
2018-11-06T11:08:57.143Z,15.4
2018-11-06T11:09:47.109Z,15.4
2018-11-06T11:10:37.752Z,15.4
2018-11-06T11:11:27.957Z,15.4
2018-11-06T11:12:15.855Z,15.4
2018-11-06T11:13:07.945Z,15.4
2018-11-06T11:13:56.442Z,15.4
2018-11-06T11:14:47.007Z,15.4
2018-11-06T11:15:38.487Z,15.4
2018-11-06T11:16:28.841Z,15.5
2018-11-06T11:17:17.471Z,15.4
2018-11-06T11:18:06.372Z,15.4
2018-11-06T11:18:58.427Z,15.5
2018-11-06T11:19:47.372Z,15.4
2018-11-06T11:20:38.047Z,15.5
2018-11-06T11:21:28.454Z,15.5
2018-11-06T11:22:18.526Z,15.4
2018-11-06T11:23:08.017Z,15.5
2018-11-06T11:23:58.029Z,15.5
2018-11-06T11:24:47.784Z,15.5
2018-11-06T11:25:39.745Z,15.5
2018-11-06T11:26:28.161Z,15.5
2018-11-06T11:27:18.808Z,15.5
2018-11-06T11:28:07.936Z,15.5
2018-11-06T11:28:58.654Z,15.5
2018-11-06T11:29:48.051Z,15.5
2018-11-06T11:30:38.169Z,15.5
2018-11-06T11:31:29.215Z,15.5
2018-11-06T11:32:19.538Z,15.5
2018-11-06T11:33:08.956Z,15.5
2018-11-06T11:33:59.372Z,15.5
2018-11-06T11:34:48.379Z,15.5
2018-11-06T11:35:38.711Z,15.5
2018-11-06T11:36:29.983Z,15.5
2018-11-06T11:37:19.416Z,15.5
2018-11-06T11:38:08.908Z,15.5
2018-11-06T11:38:58.738Z,15.5
2018-11-06T11:39:50.462Z,15.5
2018-11-06T11:40:38.535Z,15.5
2018-11-06T11:41:30.182Z,15.5
2018-11-06T11:42:20.093Z,15.5
2018-11-06T11:43:09.163Z,15.5
2018-11-06T11:43:59.351Z,15.5
2018-11-06T11:44:48.661Z,15.6
2018-11-06T11:45:38.664Z,15.6
2018-11-06T11:46:29.136Z,15.5
2018-11-06T11:47:19.628Z,15.6
2018-11-06T11:48:09.633Z,15.5
2018-11-06T11:48:59.560Z,15.6
2018-11-06T11:49:49.780Z,15.6
2018-11-06T11:50:39.665Z,15.5
2018-11-06T11:51:29.060Z,15.6
2018-11-06T11:52:20.482Z,15.6
2018-11-06T11:53:10.045Z,15.6
2018-11-06T11:53:59.365Z,15.6
2018-11-06T11:54:50.481Z,15.6
2018-11-06T11:55:40.634Z,15.6
2018-11-06T11:56:30.627Z,15.6
2018-11-06T11:57:20.572Z,15.6
2018-11-06T11:58:10.507Z,15.6
2018-11-06T11:59:00.798Z,15.6
2018-11-06T11:59:51.200Z,15.6
2018-11-06T12:00:40.845Z,15.6
2018-11-06T12:01:30.284Z,15.6
2018-11-06T12:02:22.483Z,15.6
2018-11-06T12:03:10.304Z,15.6
2018-11-06T12:04:01.352Z,15.6
2018-11-06T12:04:50.234Z,15.6
2018-11-06T12:05:41.077Z,15.6
2018-11-06T12:06:31.574Z,15.6
2018-11-06T12:07:20.805Z,15.6
2018-11-06T12:08:12.234Z,15.6
2018-11-06T12:09:01.294Z,15.6
2018-11-06T12:09:51.366Z,15.6
2018-11-06T12:10:41.921Z,15.6
2018-11-06T12:11:31.871Z,15.6
2018-11-06T12:12:22.537Z,15.6
2018-11-06T12:13:11.936Z,15.6
2018-11-06T12:14:02.127Z,15.6
2018-11-06T12:14:52.269Z,15.6
2018-11-06T12:15:41.441Z,15.6
2018-11-06T12:16:32.824Z,15.6
2018-11-06T12:17:23.139Z,15.6
2018-11-06T12:18:12.672Z,15.6
2018-11-06T12:19:02.494Z,15.6
2018-11-06T12:19:51.824Z,15.6
2018-11-06T12:20:42.802Z,15.6
2018-11-06T12:21:32.144Z,15.6
2018-11-06T12:22:21.338Z,15.6
2018-11-06T12:23:13.231Z,15.6
2018-11-06T12:24:03.348Z,15.6
2018-11-06T12:24:54.782Z,15.6
2018-11-06T12:25:45.444Z,15.6
2018-11-06T12:26:32.942Z,15.6
2018-11-06T12:27:22.563Z,15.6
2018-11-06T12:28:12.425Z,15.6
2018-11-06T12:29:02.618Z,15.6
2018-11-06T12:29:52.696Z,15.6
2018-11-06T12:30:43.573Z,15.6
2018-11-06T12:31:33.475Z,15.6
2018-11-06T12:32:23.263Z,15.6
2018-11-06T12:33:13.325Z,15.6
2018-11-06T12:34:04.720Z,15.6
2018-11-06T12:34:53.795Z,15.6
2018-11-06T12:35:44.203Z,15.6
2018-11-06T12:36:35.355Z,15.6
2018-11-06T12:37:24.163Z,15.6
2018-11-06T12:38:13.287Z,15.6
2018-11-06T12:39:03.411Z,15.6
2018-11-06T12:39:54.690Z,15.6
2018-11-06T12:40:43.642Z,15.6
2018-11-06T12:41:34.900Z,15.6
2018-11-06T12:42:23.230Z,15.6
2018-11-06T12:43:15.013Z,15.6
2018-11-06T12:44:03.542Z,15.6
2018-11-06T12:44:53.370Z,15.6
2018-11-06T12:45:44.227Z,15.6
2018-11-06T12:46:33.749Z,15.7
2018-11-06T12:47:23.649Z,15.7
2018-11-06T12:48:13.147Z,15.6
2018-11-06T12:49:05.001Z,15.7
2018-11-06T12:49:54.534Z,15.7
2018-11-06T12:50:43.899Z,15.7
2018-11-06T12:51:34.595Z,15.7
2018-11-06T12:52:24.149Z,15.7
2018-11-06T12:53:14.241Z,15.7
2018-11-06T12:54:04.303Z,15.7
2018-11-06T12:54:54.451Z,15.6
2018-11-06T12:55:43.601Z,15.7
2018-11-06T12:56:34.949Z,15.7
2018-11-06T12:57:25.153Z,15.7
2018-11-06T12:58:15.689Z,15.7
2018-11-06T12:59:05.404Z,15.7
2018-11-06T12:59:54.265Z,15.7
2018-11-06T13:00:45.361Z,15.7
2018-11-06T13:01:34.768Z,15.7
2018-11-06T13:02:24.962Z,15.7
2018-11-06T13:03:15.374Z,15.7
2018-11-06T13:04:04.840Z,15.7
2018-11-06T13:04:55.448Z,15.7
2018-11-06T13:05:43.736Z,15.7
2018-11-06T13:06:35.563Z,15.7
2018-11-06T13:07:25.091Z,15.7
2018-11-06T13:08:15.045Z,15.7
2018-11-06T13:09:05.696Z,15.7
2018-11-06T13:09:57.184Z,15.7
2018-11-06T13:10:46.885Z,15.7
2018-11-06T13:11:35.128Z,15.7
2018-11-06T13:12:25.993Z,15.7
2018-11-06T13:13:15.060Z,15.7
2018-11-06T13:14:05.815Z,15.7
2018-11-06T13:15:01.093Z,15.8
2018-11-06T13:15:48.762Z,15.8
2018-11-06T13:16:37.580Z,15.7
2018-11-06T13:17:26.585Z,15.8
2018-11-06T13:18:15.822Z,15.8
2018-11-06T13:19:06.183Z,15.8
2018-11-06T13:19:55.918Z,15.8
2018-11-06T13:20:45.860Z,15.8
2018-11-06T13:21:37.140Z,15.8
2018-11-06T13:22:26.265Z,15.8
2018-11-06T13:23:17.329Z,15.8
2018-11-06T13:24:06.975Z,15.8
2018-11-06T13:24:56.805Z,15.8
2018-11-06T13:25:47.527Z,15.8
2018-11-06T13:26:38.444Z,15.8
2018-11-06T13:27:27.677Z,15.8
2018-11-06T13:28:16.372Z,15.8
2018-11-06T13:29:07.472Z,15.8
2018-11-06T13:29:57.802Z,15.8
2018-11-06T13:30:48.601Z,15.8
2018-11-06T13:31:37.799Z,15.8
2018-11-06T13:32:29.863Z,15.8
2018-11-06T13:33:16.898Z,15.8
2018-11-06T13:34:06.830Z,15.8
2018-11-06T13:34:58.052Z,15.8
2018-11-06T13:35:48.279Z,15.8
2018-11-06T13:36:38.276Z,15.8
2018-11-06T13:37:27.019Z,15.8
2018-11-06T13:38:18.337Z,15.8
2018-11-06T13:39:07.732Z,15.8
2018-11-06T13:39:59.536Z,15.8
2018-11-06T13:40:48.429Z,15.8
2018-11-06T13:41:38.392Z,15.8
2018-11-06T13:42:28.192Z,15.8
2018-11-06T13:43:20.138Z,15.8
2018-11-06T13:44:10.833Z,15.8
2018-11-06T13:45:02.444Z,15.8
2018-11-06T13:45:51.352Z,15.8
2018-11-06T13:46:38.693Z,15.8
2018-11-06T13:47:28.773Z,15.8
2018-11-06T13:48:18.161Z,15.8
2018-11-06T13:49:08.902Z,15.8
2018-11-06T13:49:58.368Z,15.8
2018-11-06T14:07:40.201Z,15.8
2018-11-06T14:08:28.990Z,15.8
2018-11-06T14:09:18.880Z,15.8
2018-11-06T14:10:09.552Z,15.8
2018-11-06T14:10:59.984Z,15.8
2018-11-06T14:11:49.220Z,15.8
2018-11-06T14:12:39.489Z,15.8
2018-11-06T14:13:29.612Z,15.9
2018-11-06T14:14:19.168Z,15.8
2018-11-06T14:15:10.842Z,15.8
2018-11-06T14:15:59.391Z,15.8
2018-11-06T14:16:50.472Z,15.9
2018-11-06T14:17:40.519Z,15.8
2018-11-06T14:18:29.764Z,15.9
2018-11-06T14:19:20.496Z,15.8
2018-11-06T14:20:10.861Z,15.9
2018-11-06T14:21:00.259Z,15.9
2018-11-06T14:21:51.336Z,15.9
2018-11-06T14:22:40.866Z,15.9
2018-11-06T14:23:29.921Z,15.9
2018-11-06T14:24:21.554Z,15.8
2018-11-06T14:25:10.564Z,15.9
2018-11-06T14:26:00.776Z,15.9
2018-11-06T14:26:50.569Z,15.9
2018-11-06T14:27:43.560Z,15.9
2018-11-06T14:28:31.615Z,15.9
2018-11-06T14:29:20.765Z,15.9
2018-11-06T14:30:11.613Z,15.9
2018-11-06T14:31:01.006Z,15.9
2018-11-06T14:31:51.538Z,15.9
2018-11-06T14:32:40.787Z,15.9
2018-11-06T14:33:29.767Z,15.9
2018-11-06T14:34:19.575Z,15.9
2018-11-06T14:35:11.208Z,15.9
2018-11-06T14:36:04.212Z,15.9
2018-11-06T14:36:51.084Z,15.9
2018-11-06T14:37:40.521Z,15.9
2018-11-06T14:38:31.097Z,15.9
2018-11-06T14:39:20.669Z,15.9
2018-11-06T14:40:10.459Z,15.9
2018-11-06T14:41:02.132Z,15.9
2018-11-06T14:41:51.579Z,15.9
2018-11-06T14:42:42.649Z,15.9
2018-11-06T14:43:32.010Z,15.9
2018-11-06T14:44:21.987Z,15.9
2018-11-06T14:45:11.491Z,15.9
2018-11-06T14:46:02.295Z,15.9
2018-11-06T14:46:51.869Z,15.9
2018-11-06T14:47:43.209Z,15.9
2018-11-06T14:48:33.168Z,15.9
2018-11-06T14:49:24.603Z,15.9
2018-11-06T14:50:12.405Z,15.9
2018-11-06T14:51:02.708Z,15.9
2018-11-06T14:51:51.711Z,15.9
2018-11-06T14:52:42.576Z,15.9
2018-11-06T14:53:32.663Z,15.9
2018-11-06T14:54:22.924Z,15.9
2018-11-06T14:55:13.398Z,15.9
2018-11-06T14:56:04.761Z,15.9
2018-11-06T14:56:53.436Z,15.9
2018-11-06T14:57:43.644Z,15.9
2018-11-06T14:58:32.228Z,15.9
2018-11-06T14:59:23.628Z,15.9
2018-11-06T15:00:12.997Z,15.9
2018-11-06T15:01:04.359Z,15.9
2018-11-06T15:01:53.754Z,15.9
2018-11-06T15:02:43.404Z,15.9
2018-11-06T15:03:33.422Z,15.9
2018-11-06T15:04:21.353Z,15.9
2018-11-06T15:05:13.012Z,15.9
2018-11-06T15:06:03.453Z,15.9
2018-11-06T15:06:53.085Z,15.9
2018-11-06T15:07:43.790Z,15.9
2018-11-06T15:08:32.482Z,15.9
2018-11-06T15:09:23.222Z,15.9
2018-11-06T15:10:13.730Z,15.9
2018-11-06T15:11:03.383Z,15.9
2018-11-06T15:11:53.767Z,15.9
2018-11-06T15:12:45.599Z,15.9
2018-11-06T15:13:34.547Z,15.9
2018-11-06T15:14:24.237Z,15.9
2018-11-06T15:15:13.018Z,15.9
2018-11-06T15:16:04.089Z,15.9
2018-11-06T15:16:54.069Z,15.9
2018-11-06T15:17:44.281Z,15.9
2018-11-06T15:18:35.079Z,15.9
2018-11-06T15:19:24.152Z,15.9
2018-11-06T15:20:14.289Z,15.9
2018-11-06T15:21:06.270Z,15.9
2018-11-06T15:21:55.747Z,15.9
2018-11-06T15:22:44.754Z,15.9
2018-11-06T15:23:34.492Z,15.9
2018-11-06T15:24:25.426Z,15.9
2018-11-06T15:25:14.291Z,15.9
2018-11-06T15:26:04.232Z,15.9
2018-11-06T15:26:55.117Z,15.9
2018-11-06T15:27:45.018Z,15.9
2018-11-06T15:28:35.533Z,15.9
2018-11-06T15:29:25.573Z,15.9
2018-11-06T15:30:16.133Z,15.9
2018-11-06T15:31:05.369Z,15.9
2018-11-06T15:31:55.921Z,15.9
2018-11-06T15:32:46.284Z,15.9
2018-11-06T15:33:34.831Z,15.9
2018-11-06T15:34:25.151Z,15.9
2018-11-06T15:35:16.503Z,15.9
2018-11-06T15:36:04.555Z,15.9